Airport ID:K63S
Update Time (UTC):16/04/2024 01:56
Wind Speed (Knots):9
Wind Direction (Magnetic):200
Temperature (°C):15
Dew Point (°C):-9
Humidity (%):20
Altimeter (inHg):29.87
Density Altitude (Feet):
Visibility:10+
Clouds (Hundreds of feet):CLR
Present Weather:
METAR:METAR K63S 160155Z AUTO 22008G20KT 10SM CLR 15/M09 A2987 RMK A01

The data displayed is for advisory purposes only and is not to be used for flight planning or operations.